Terminal Aerodrome Forecast
Issued by NWS Charleston, WV

Current Version | Previous Version | Graphics & Text | Print | Product List | Glossary On
Versions: 1 2 3 4 5 6 7 8 9 10 11 12 13 14 15 16 17 18 19 20 21 22 23 24 25
952
FTUS41 KRLX 250853 AAA
TAFBKW
TAF AMD
KBKW 250853Z 2509/2606 00000KT 6SM BR SKC
      TEMPO 2509/2513 4SM BR
     FM251300 VRB03KT P6SM SCT015
      TEMPO 2514/2518 BKN015
     FM251800 00000KT P6SM SCT025
     FM260200 13005KT P6SM BKN025
     FM260300 15006KT P6SM BKN015=

USA.gov is the U.S. government's official web portal to all federal, state and local government web resources and services.